DAL377 KLAX-KLAS
Flight info
| Callsign | DAL377 |
|---|---|
| Flight time | N/A |
| Altitude | 29000 |
| Route | ORCKA5 MISEN RNDRZ4 |
| Aircraft | A320/M-SDE3FGHIRWY/LB1 |
Departure
| Time | N/A |
|---|---|
| Airport | Los Angeles International Airport (KLAX) |
Arrival
| Time | 2026-05-05 22:47 |
|---|---|
| Airport | Harry Reid International Airport (KLAS) |
| Time | Latitude | Longitude | Altitude | Speed | Heading |
|---|---|---|---|---|---|
| 2026-05-05 22:37 | 35.99983 | -115.36110 | 13463 ft | 324 kts | 41° |
| 2026-05-05 22:38 | 36.01277 | -115.33870 | 13447 ft | 322 kts | 72° |
| 2026-05-05 22:38 | 36.01564 | -115.31175 | 13450 ft | 318 kts | 97° |
| 2026-05-05 22:38 | 36.01318 | -115.28529 | 13450 ft | 319 kts | 99° |
| 2026-05-05 22:38 | 36.01116 | -115.25799 | 13466 ft | 320 kts | 97° |
| 2026-05-05 22:39 | 36.00962 | -115.23059 | 13465 ft | 320 kts | 96° |
| 2026-05-05 22:39 | 36.00835 | -115.20317 | 13467 ft | 320 kts | 95° |
| 2026-05-05 22:39 | 36.00717 | -115.17619 | 13458 ft | 308 kts | 95° |
| 2026-05-05 22:39 | 36.00603 | -115.15033 | 13398 ft | 296 kts | 96° |
| 2026-05-05 22:40 | 36.00491 | -115.12564 | 13256 ft | 279 kts | 96° |
| 2026-05-05 22:40 | 36.00382 | -115.10250 | 13123 ft | 270 kts | 96° |
| 2026-05-05 22:40 | 36.00264 | -115.07928 | 12749 ft | 272 kts | 97° |
| 2026-05-05 22:40 | 36.00137 | -115.05547 | 12103 ft | 285 kts | 96° |
| 2026-05-05 22:41 | 36.00000 | -115.03015 | 11201 ft | 306 kts | 96° |
| 2026-05-05 22:41 | 35.99869 | -115.00314 | 10325 ft | 323 kts | 95° |
| 2026-05-05 22:41 | 35.99810 | -114.97510 | 9418 ft | 336 kts | 93° |
| 2026-05-05 22:41 | 35.99798 | -114.94590 | 8505 ft | 345 kts | 91° |
| 2026-05-05 22:42 | 36.00211 | -114.91638 | 7618 ft | 357 kts | 68° |
| 2026-05-05 22:42 | 36.01652 | -114.89134 | 6759 ft | 364 kts | 40° |
| 2026-05-05 22:42 | 36.03832 | -114.87690 | 6077 ft | 358 kts | 11° |
| 2026-05-05 22:42 | 36.06099 | -114.87665 | 5881 ft | 321 kts | 342° |
| 2026-05-05 22:43 | 36.07902 | -114.88864 | 5727 ft | 283 kts | 311° |
| 2026-05-05 22:43 | 36.08768 | -114.90714 | 5597 ft | 250 kts | 279° |
| 2026-05-05 22:43 | 36.08981 | -114.92718 | 5474 ft | 218 kts | 264° |
| 2026-05-05 22:43 | 36.08755 | -114.94382 | 5291 ft | 205 kts | 250° |
| 2026-05-05 22:44 | 36.08282 | -114.96045 | 5123 ft | 208 kts | 246° |
| 2026-05-05 22:44 | 36.07800 | -114.97743 | 4652 ft | 210 kts | 252° |
| 2026-05-05 22:44 | 36.07507 | -114.99479 | 4398 ft | 197 kts | 259° |
| 2026-05-05 22:44 | 36.07370 | -115.01128 | 4056 ft | 190 kts | 264° |
| 2026-05-05 22:45 | 36.07320 | -115.02744 | 3702 ft | 184 kts | 267° |
| 2026-05-05 22:45 | 36.07331 | -115.04228 | 3516 ft | 165 kts | 268° |
| 2026-05-05 22:45 | 36.07381 | -115.05566 | 3313 ft | 148 kts | 267° |
| 2026-05-05 22:45 | 36.07385 | -115.06723 | 3006 ft | 142 kts | 269° |
| 2026-05-05 22:46 | 36.07380 | -115.07918 | 2862 ft | 139 kts | 267° |
| 2026-05-05 22:46 | 36.07362 | -115.09107 | 2687 ft | 141 kts | 269° |
| 2026-05-05 22:46 | 36.07348 | -115.10334 | 2488 ft | 141 kts | 269° |
| 2026-05-05 22:46 | 36.07347 | -115.11545 | 2259 ft | 141 kts | 269° |
| 2026-05-05 22:47 | 36.07361 | -115.12762 | 2115 ft | 142 kts | 270° |
| 2026-05-05 22:47 | 36.07368 | -115.13820 | 2092 ft | 113 kts | 270° |
| 2026-05-05 22:47 | 36.07363 | -115.14575 | 2116 ft | 63 kts | 270° |
| 2026-05-05 22:47 | 36.07363 | -115.14924 | 2123 ft | 28 kts | 271° |
| 2026-05-05 22:48 | 36.07367 | -115.15162 | 2124 ft | 27 kts | 272° |
| 2026-05-05 22:48 | 36.07410 | -115.15372 | 2133 ft | 22 kts | 294° |
| 2026-05-05 22:48 | 36.07470 | -115.15510 | 2134 ft | 7 kts | 300° |
| 2026-05-05 22:48 | 36.07471 | -115.15511 | 2134 ft | 0 kts | 300° |
| 2026-05-05 22:50 | 36.07476 | -115.15523 | 2135 ft | 6 kts | 299° |
| 2026-05-05 22:50 | 36.07522 | -115.15602 | 2137 ft | 17 kts | 313° |
| 2026-05-05 22:51 | 36.07610 | -115.15712 | 2137 ft | 19 kts | 316° |
| 2026-05-05 22:51 | 36.07708 | -115.15816 | 2139 ft | 17 kts | 333° |
| 2026-05-05 22:51 | 36.07815 | -115.15825 | 2141 ft | 16 kts | 1° |
| 2026-05-05 22:51 | 36.07878 | -115.15754 | 2139 ft | 14 kts | 89° |
| 2026-05-05 22:52 | 36.07877 | -115.15614 | 2135 ft | 18 kts | 90° |
| 2026-05-05 22:52 | 36.07877 | -115.15439 | 2130 ft | 22 kts | 90° |
| 2026-05-05 22:52 | 36.07878 | -115.15253 | 2122 ft | 20 kts | 89° |
| 2026-05-05 22:52 | 36.07876 | -115.15100 | 2116 ft | 18 kts | 91° |
| 2026-05-05 22:53 | 36.07867 | -115.14956 | 2112 ft | 18 kts | 97° |
| 2026-05-05 22:53 | 36.07855 | -115.14785 | 2106 ft | 20 kts | 93° |
| 2026-05-05 22:53 | 36.07847 | -115.14632 | 2105 ft | 18 kts | 93° |
| 2026-05-05 22:53 | 36.07837 | -115.14476 | 2102 ft | 15 kts | 96° |
| 2026-05-05 22:54 | 36.07828 | -115.14337 | 2096 ft | 18 kts | 94° |
| 2026-05-05 22:54 | 36.07827 | -115.14170 | 2088 ft | 20 kts | 89° |
| 2026-05-05 22:54 | 36.07832 | -115.14026 | 2083 ft | 14 kts | 66° |
| 2026-05-05 22:54 | 36.07882 | -115.13959 | 2078 ft | 8 kts | 43° |
| 2026-05-05 22:55 | 36.07923 | -115.13949 | 2076 ft | 6 kts | 355° |
| 2026-05-05 22:55 | 36.07968 | -115.13957 | 2072 ft | 5 kts | 352° |
| 2026-05-05 22:55 | 36.07993 | -115.13962 | 2070 ft | 0 kts | 352° |